createdAt,value
2019-03-09T00:01:15.336Z,32.70
2019-03-09T00:03:44.415Z,44.27
2019-03-09T00:06:13.678Z,56.67
2019-03-09T00:08:42.864Z,100.43
2019-03-09T00:11:12.019Z,48.90
2019-03-09T00:13:41.162Z,55.93
2019-03-09T00:16:10.539Z,47.90
2019-03-09T00:18:39.603Z,77.50
2019-03-09T00:21:08.720Z,36.43
2019-03-09T00:23:55.599Z,38.97
2019-03-09T00:26:32.644Z,49.07
2019-03-09T00:29:12.241Z,47.23
2019-03-09T00:31:45.790Z,33.83
2019-03-09T00:34:14.795Z,50.43
2019-03-09T00:36:43.815Z,34.40
2019-03-09T00:39:13.293Z,44.63
2019-03-09T00:41:42.380Z,39.03
2019-03-09T00:44:11.493Z,59.53
2019-03-09T00:46:40.664Z,46.70
2019-03-09T00:49:11.261Z,47.20
2019-03-09T00:51:40.591Z,36.57
2019-03-09T00:54:09.790Z,37.57
2019-03-09T00:56:38.820Z,31.70
2019-03-09T00:59:07.898Z,44.90
2019-03-09T01:01:36.891Z,55.97
2019-03-09T01:04:05.980Z,52.47
2019-03-09T01:06:35.103Z,45.03
2019-03-09T01:09:05.686Z,58.67
2019-03-09T01:11:34.794Z,84.53
2019-03-09T01:14:04.290Z,35.30
2019-03-09T01:16:33.395Z,51.17
2019-03-09T01:19:02.461Z,40.17
2019-03-09T01:21:31.595Z,47.40
2019-03-09T01:24:00.584Z,86.07
2019-03-09T01:26:30.036Z,59.50
2019-03-09T01:28:59.089Z,50.33
2019-03-09T01:31:28.155Z,36.63
2019-03-09T01:33:57.300Z,40.90
2019-03-09T01:36:26.330Z,34.30
2019-03-09T01:38:55.367Z,47.73
2019-03-09T01:41:24.440Z,43.40
2019-03-09T01:43:53.491Z,62.27
2019-03-09T01:46:22.468Z,57.43
2019-03-09T01:48:51.528Z,73.20
2019-03-09T01:51:20.729Z,63.60
2019-03-09T01:53:49.782Z,67.90
2019-03-09T01:56:18.847Z,39.97
2019-03-09T01:58:47.870Z,43.60
2019-03-09T02:01:16.860Z,45.40
2019-03-09T02:03:45.920Z,59.50
2019-03-09T02:06:15.083Z,37.57
2019-03-09T02:08:44.178Z,44.13
2019-03-09T02:11:13.263Z,41.10
2019-03-09T02:13:42.307Z,31.67
2019-03-09T02:16:11.336Z,34.97
2019-03-09T02:18:40.376Z,43.57
2019-03-09T02:21:09.757Z,37.17
2019-03-09T02:23:38.785Z,50.50
2019-03-09T02:26:07.754Z,43.20
2019-03-09T02:28:36.803Z,35.70
2019-03-09T02:31:05.786Z,40.93
2019-03-09T02:33:34.906Z,42.47
2019-03-09T02:36:03.976Z,35.73
2019-03-09T02:38:58.124Z,35.80
2019-03-09T02:41:27.285Z,34.27
2019-03-09T02:43:56.294Z,46.03
2019-03-09T02:46:25.408Z,36.77
2019-03-09T02:48:54.474Z,35.53
2019-03-09T02:51:23.539Z,34.17
2019-03-09T02:53:52.702Z,39.90
2019-03-09T02:56:21.680Z,36.17
2019-03-09T02:58:50.696Z,19.47
2019-03-09T03:01:38.858Z,36.53
2019-03-09T03:04:07.894Z,41.30
2019-03-09T03:06:36.886Z,61.27
2019-03-09T03:09:06.697Z,35.07
2019-03-09T03:11:37.379Z,23.47
2019-03-09T03:14:06.588Z,37.07
2019-03-09T03:16:35.490Z,31.47
2019-03-09T03:19:04.524Z,34.43
2019-03-09T03:21:33.643Z,31.77
2019-03-09T03:24:02.755Z,29.87
2019-03-09T03:26:31.900Z,28.40
2019-03-09T03:29:01.023Z,23.43
2019-03-09T03:31:30.043Z,36.63
2019-03-09T03:33:59.109Z,29.23
2019-03-09T03:36:28.264Z,27.07
2019-03-09T03:38:57.350Z,33.03
2019-03-09T03:41:26.619Z,42.50
2019-03-09T03:43:55.699Z,27.70
2019-03-09T03:46:24.888Z,29.40
2019-03-09T03:48:53.900Z,27.53
2019-03-09T03:51:23.076Z,28.87
2019-03-09T03:53:52.068Z,17.70
2019-03-09T03:56:21.246Z,31.93
2019-03-09T03:58:50.365Z,24.53
2019-03-09T04:01:19.560Z,25.13
2019-03-09T04:03:48.657Z,29.67
2019-03-09T04:06:18.132Z,25.73
2019-03-09T04:08:47.681Z,24.27
2019-03-09T04:11:16.780Z,24.17
2019-03-09T04:13:46.121Z,29.70
2019-03-09T04:16:15.135Z,40.93
2019-03-09T04:18:44.156Z,19.47
2019-03-09T04:21:13.227Z,20.83
2019-03-09T04:23:42.287Z,25.77
2019-03-09T04:26:11.354Z,25.17
2019-03-09T04:28:40.486Z,21.63
2019-03-09T04:31:09.538Z,19.27
2019-03-09T04:33:38.779Z,18.20
2019-03-09T04:36:07.926Z,33.70
2019-03-09T04:38:37.056Z,16.13
2019-03-09T04:41:06.148Z,19.13
2019-03-09T04:43:35.147Z,19.53
2019-03-09T04:46:04.256Z,21.93
2019-03-09T04:48:33.395Z,27.07
2019-03-09T04:51:02.453Z,13.47
2019-03-09T04:53:31.506Z,20.13
2019-03-09T04:56:00.601Z,16.60
2019-03-09T04:58:29.626Z,21.60
2019-03-09T05:00:58.691Z,15.97
2019-03-09T05:03:27.819Z,33.80
2019-03-09T05:05:56.896Z,31.33
2019-03-09T05:08:47.857Z,18.30
2019-03-09T05:11:24.147Z,24.67
2019-03-09T05:14:04.151Z,16.47
2019-03-09T05:16:33.268Z,24.90
2019-03-09T05:19:02.352Z,20.37
2019-03-09T05:21:31.621Z,20.10
2019-03-09T05:24:00.609Z,14.10
2019-03-09T05:26:29.679Z,24.13
2019-03-09T05:28:58.751Z,25.33
2019-03-09T05:31:27.820Z,19.80
2019-03-09T05:33:56.797Z,28.03
2019-03-09T05:36:25.961Z,12.87
2019-03-09T05:38:55.063Z,36.20
2019-03-09T05:41:24.194Z,5.50
2019-03-09T05:43:53.371Z,16.30
2019-03-09T05:46:22.452Z,16.17
2019-03-09T05:48:51.468Z,32.57
2019-03-09T05:51:20.443Z,15.63
2019-03-09T05:53:49.451Z,26.17
2019-03-09T05:56:18.450Z,26.00
2019-03-09T05:58:47.434Z,20.23
2019-03-09T06:01:16.375Z,32.53
2019-03-09T06:03:45.345Z,18.67
2019-03-09T06:06:16.331Z,38.10
2019-03-09T06:08:45.951Z,26.33
2019-03-09T06:11:15.041Z,10.63
2019-03-09T06:13:44.010Z,33.37
2019-03-09T06:16:13.015Z,31.13
2019-03-09T06:18:42.122Z,24.70
2019-03-09T06:21:11.227Z,21.93
2019-03-09T06:23:40.303Z,24.50
2019-03-09T06:26:09.400Z,21.73
2019-03-09T06:28:38.452Z,28.37
2019-03-09T06:31:07.529Z,22.13
2019-03-09T06:33:37.617Z,28.53
2019-03-09T06:36:34.562Z,18.47
2019-03-09T06:39:15.372Z,34.20
2019-03-09T06:42:05.675Z,17.90
2019-03-09T06:44:34.727Z,16.80
2019-03-09T06:47:03.819Z,16.30
2019-03-09T06:49:32.898Z,25.23
2019-03-09T06:52:02.015Z,20.17
2019-03-09T06:54:30.951Z,18.53
2019-03-09T06:56:59.948Z,17.80
2019-03-09T06:59:28.944Z,17.43
2019-03-09T07:01:58.059Z,17.83
2019-03-09T07:04:27.150Z,26.33
2019-03-09T07:06:56.210Z,22.43
2019-03-09T07:09:25.160Z,22.33
2019-03-09T07:11:54.238Z,61.00
2019-03-09T07:15:15.705Z,17.27
2019-03-09T07:17:44.875Z,16.63
2019-03-09T07:20:14.034Z,17.33
2019-03-09T07:22:43.156Z,12.70
2019-03-09T07:25:12.217Z,17.37
2019-03-09T07:27:41.522Z,4.73
2019-03-09T07:30:16.179Z,19.10
2019-03-09T07:32:45.303Z,16.67
2019-03-09T07:35:14.419Z,24.60
2019-03-09T07:37:43.565Z,26.17
2019-03-09T07:40:12.652Z,20.07
2019-03-09T07:42:42.419Z,22.93
2019-03-09T07:45:12.593Z,22.50
2019-03-09T07:47:42.626Z,24.77
2019-03-09T07:50:12.174Z,23.87
2019-03-09T07:52:41.247Z,24.13
2019-03-09T07:55:12.003Z,27.83
2019-03-09T07:57:41.264Z,32.80
2019-03-09T08:00:16.718Z,30.10
2019-03-09T08:02:45.848Z,28.47
2019-03-09T08:05:15.682Z,19.13
2019-03-09T08:07:45.236Z,27.57
2019-03-09T08:10:16.567Z,19.87
2019-03-09T08:12:46.194Z,29.37
2019-03-09T08:15:17.046Z,22.73
2019-03-09T08:17:46.482Z,20.40
2019-03-09T08:20:16.171Z,31.23
2019-03-09T08:22:46.107Z,25.70
2019-03-09T08:25:16.285Z,31.73
2019-03-09T08:27:45.327Z,27.53
2019-03-09T08:30:16.555Z,23.13
2019-03-09T08:32:46.329Z,25.57
2019-03-09T08:35:17.721Z,21.97
2019-03-09T08:41:47.162Z,16.10
2019-03-09T08:44:16.438Z,24.37
2019-03-09T08:46:46.063Z,19.73
2019-03-09T08:49:15.316Z,24.40
2019-03-09T08:51:44.573Z,27.10
2019-03-09T08:54:13.619Z,24.10
2019-03-09T08:56:42.704Z,14.10
2019-03-09T08:59:11.780Z,17.63
2019-03-09T09:01:40.891Z,21.70
2019-03-09T09:04:09.968Z,25.90
2019-03-09T09:06:39.005Z,23.63
2019-03-09T09:09:08.709Z,23.43
2019-03-09T09:11:37.800Z,17.87
2019-03-09T09:14:06.899Z,26.90
2019-03-09T09:16:35.932Z,13.63
2019-03-09T09:19:04.979Z,19.40
2019-03-09T09:21:34.045Z,16.70
2019-03-09T09:24:03.039Z,31.73
2019-03-09T09:26:32.093Z,29.50
2019-03-09T09:29:01.186Z,23.90
2019-03-09T09:31:30.284Z,26.70
2019-03-09T09:33:59.366Z,33.67
2019-03-09T09:36:28.447Z,26.30
2019-03-09T09:38:57.574Z,28.57
2019-03-09T09:41:26.607Z,25.73
2019-03-09T09:43:55.702Z,28.30
2019-03-09T09:46:24.798Z,21.20
2019-03-09T09:48:53.778Z,24.03
2019-03-09T09:51:23.957Z,26.00
2019-03-09T09:53:52.978Z,21.07
2019-03-09T09:56:22.048Z,34.53
2019-03-09T09:58:51.141Z,20.63
2019-03-09T10:01:20.235Z,20.83
2019-03-09T10:03:49.279Z,22.03
2019-03-09T10:06:18.316Z,18.20
2019-03-09T10:08:47.406Z,24.27
2019-03-09T10:11:16.458Z,22.87
2019-03-09T10:13:45.552Z,31.27
2019-03-09T10:16:14.633Z,28.00
2019-03-09T10:18:43.640Z,20.60
2019-03-09T10:21:12.722Z,18.37
2019-03-09T10:23:41.757Z,17.13
2019-03-09T10:26:10.850Z,23.40
2019-03-09T10:28:39.846Z,26.00
2019-03-09T10:31:08.919Z,34.93
2019-03-09T10:33:37.994Z,21.57
2019-03-09T10:36:07.070Z,23.73
2019-03-09T10:38:36.116Z,19.33
2019-03-09T10:41:05.184Z,17.93
2019-03-09T10:43:37.884Z,26.07
2019-03-09T10:46:07.090Z,18.87
2019-03-09T10:48:36.091Z,18.57
2019-03-09T10:51:05.167Z,23.13
2019-03-09T10:53:34.157Z,13.03
2019-03-09T10:56:03.238Z,20.37
2019-03-09T10:58:32.301Z,27.20
2019-03-09T11:01:01.392Z,28.83
2019-03-09T11:03:30.303Z,18.37
2019-03-09T11:05:59.361Z,25.87
2019-03-09T11:08:28.442Z,22.70
2019-03-09T11:10:57.466Z,19.43
2019-03-09T11:13:26.487Z,31.57
2019-03-09T11:15:55.576Z,30.13
2019-03-09T11:18:24.639Z,22.13
2019-03-09T11:20:53.739Z,25.60
2019-03-09T11:23:22.884Z,30.70
2019-03-09T11:25:52.063Z,22.57
2019-03-09T11:28:21.171Z,25.13
2019-03-09T11:30:50.224Z,31.33
2019-03-09T11:33:19.302Z,24.97
2019-03-09T11:35:48.359Z,31.90
2019-03-09T11:38:17.345Z,27.27
2019-03-09T11:40:56.680Z,34.57
2019-03-09T11:43:17.036Z,24.40
2019-03-09T11:45:46.203Z,23.77
2019-03-09T11:48:15.862Z,38.80
2019-03-09T11:50:45.083Z,25.77
2019-03-09T11:53:14.151Z,24.77
2019-03-09T11:55:43.191Z,39.33
2019-03-09T11:58:12.679Z,22.97
2019-03-09T12:00:42.524Z,25.40
2019-03-09T12:03:11.616Z,26.43
2019-03-09T12:05:42.437Z,29.53
2019-03-09T12:08:11.636Z,27.07
2019-03-09T12:10:40.804Z,46.53
2019-03-09T12:13:09.870Z,35.57
2019-03-09T12:15:39.161Z,41.57
2019-03-09T12:18:08.246Z,46.67
2019-03-09T12:20:37.627Z,42.13
2019-03-09T12:23:20.123Z,26.40
2019-03-09T12:25:49.195Z,31.87
2019-03-09T12:28:18.245Z,32.87
2019-03-09T12:30:47.388Z,42.83
2019-03-09T12:33:16.764Z,44.93
2019-03-09T12:35:45.755Z,36.87
2019-03-09T12:38:14.916Z,42.23
2019-03-09T12:40:44.003Z,46.27
2019-03-09T12:43:13.092Z,45.17
2019-03-09T12:45:42.921Z,39.50
2019-03-09T12:48:12.010Z,42.40
2019-03-09T12:50:40.919Z,31.97
2019-03-09T12:53:10.776Z,54.77
2019-03-09T12:55:39.860Z,49.83
2019-03-09T12:58:08.946Z,46.70
2019-03-09T13:00:38.081Z,46.97
2019-03-09T13:03:07.174Z,50.43
2019-03-09T13:05:36.850Z,50.97
2019-03-09T13:08:05.967Z,40.37
2019-03-09T13:10:35.128Z,53.83
2019-03-09T13:13:04.320Z,45.67
2019-03-09T13:15:33.413Z,46.20
2019-03-09T13:18:02.432Z,50.20
2019-03-09T13:20:31.611Z,46.13
2019-03-09T13:23:00.692Z,39.33
2019-03-09T13:25:29.751Z,25.07
2019-03-09T13:27:58.851Z,17.63
2019-03-09T13:30:29.041Z,7.10
2019-03-09T13:32:58.082Z,15.90
2019-03-09T13:35:27.060Z,19.07
2019-03-09T13:38:26.972Z,29.20
2019-03-09T13:40:56.077Z,32.03
2019-03-09T13:43:25.099Z,27.63
2019-03-09T13:45:54.155Z,33.97
2019-03-09T13:48:23.932Z,37.13
2019-03-09T13:50:53.052Z,31.27
2019-03-09T13:53:22.526Z,19.33
2019-03-09T13:55:52.272Z,42.13
2019-03-09T13:58:21.650Z,40.63
2019-03-09T14:00:50.626Z,36.60
2019-03-09T14:03:19.707Z,40.90
2019-03-09T14:05:48.731Z,24.67
2019-03-09T14:08:17.711Z,20.00
2019-03-09T14:10:46.792Z,19.47
2019-03-09T14:13:15.801Z,15.43
2019-03-09T14:15:44.855Z,20.37
2019-03-09T14:18:13.858Z,15.43
2019-03-09T14:20:42.950Z,21.87
2019-03-09T14:23:12.015Z,29.17
2019-03-09T14:25:41.132Z,28.00
2019-03-09T14:28:10.143Z,26.67
2019-03-09T14:30:39.194Z,18.30
2019-03-09T14:33:08.472Z,18.37
2019-03-09T14:35:37.624Z,14.93
2019-03-09T14:38:06.728Z,23.90
2019-03-09T14:40:35.816Z,16.40
2019-03-09T14:43:04.895Z,16.17
2019-03-09T14:45:34.040Z,14.67
2019-03-09T14:48:03.127Z,18.67
2019-03-09T14:50:32.193Z,19.37
2019-03-09T14:53:01.246Z,22.33
2019-03-09T14:55:30.379Z,20.20
2019-03-09T14:57:59.477Z,22.00
2019-03-09T15:00:28.547Z,20.00
2019-03-09T15:02:57.659Z,22.93
2019-03-09T15:05:26.754Z,16.23
2019-03-09T15:07:56.004Z,19.40
2019-03-09T15:10:25.072Z,17.63
2019-03-09T15:12:54.113Z,13.70
2019-03-09T15:15:23.187Z,11.10
2019-03-09T15:17:52.274Z,13.97
2019-03-09T15:20:21.363Z,16.57
2019-03-09T15:22:50.438Z,23.50
2019-03-09T15:25:19.631Z,16.80
2019-03-09T15:27:49.255Z,14.33
2019-03-09T15:30:18.882Z,15.43
2019-03-09T15:32:47.967Z,18.07
2019-03-09T15:35:17.450Z,13.73
2019-03-09T15:37:46.768Z,17.40
2019-03-09T15:40:17.462Z,14.50
2019-03-09T15:42:46.722Z,15.67
2019-03-09T15:45:16.473Z,14.93
2019-03-09T15:47:46.132Z,16.87
2019-03-09T15:50:16.746Z,19.20
2019-03-09T15:52:45.816Z,21.10
2019-03-09T15:55:15.185Z,12.70
2019-03-09T15:57:44.312Z,13.60
2019-03-09T16:00:15.739Z,13.97
2019-03-09T16:02:44.744Z,20.90
2019-03-09T16:05:13.919Z,15.53
2019-03-09T16:07:42.980Z,13.53
2019-03-09T16:10:13.185Z,15.70
2019-03-09T16:12:42.271Z,18.87
2019-03-09T16:15:12.252Z,18.63
2019-03-09T16:17:41.400Z,19.90
2019-03-09T16:20:12.623Z,13.67
2019-03-09T16:22:41.715Z,19.87
2019-03-09T16:25:11.438Z,19.53
2019-03-09T16:27:40.555Z,22.90
2019-03-09T16:30:12.293Z,16.07
2019-03-09T16:32:41.388Z,17.67
2019-03-09T16:35:10.872Z,18.63
2019-03-09T16:37:39.960Z,13.67
2019-03-09T16:40:09.399Z,29.23
2019-03-09T16:42:38.586Z,21.67
2019-03-09T16:45:08.143Z,25.23
2019-03-09T16:47:37.251Z,16.60
2019-03-09T16:50:06.687Z,15.33
2019-03-09T16:52:35.783Z,21.43
2019-03-09T16:55:05.190Z,16.60
2019-03-09T16:57:34.352Z,16.07
2019-03-09T17:00:04.091Z,16.70
2019-03-09T17:02:33.212Z,19.13
2019-03-09T17:05:02.228Z,15.87
2019-03-09T17:07:31.405Z,12.87
2019-03-09T17:10:00.412Z,12.53
2019-03-09T17:12:29.519Z,12.17
2019-03-09T17:14:58.518Z,13.20
2019-03-09T17:17:27.470Z,17.50
2019-03-09T17:19:56.632Z,13.67
2019-03-09T17:22:32.661Z,15.33
2019-03-09T17:24:56.431Z,21.77
2019-03-09T17:27:25.651Z,14.00
2019-03-09T17:29:54.715Z,14.40
2019-03-09T17:32:26.016Z,13.17
2019-03-09T17:34:54.584Z,15.93
2019-03-09T17:37:23.659Z,21.30
2019-03-09T17:39:52.741Z,13.47
2019-03-09T17:42:21.777Z,11.93
2019-03-09T17:44:51.083Z,20.70
2019-03-09T17:47:20.187Z,12.13
2019-03-09T17:49:49.272Z,20.40
2019-03-09T17:52:18.341Z,15.70
2019-03-09T17:54:47.465Z,14.50
2019-03-09T17:57:16.647Z,15.10
2019-03-09T17:59:45.764Z,14.27
2019-03-09T18:02:14.894Z,14.47
2019-03-09T18:04:43.792Z,11.67
2019-03-09T18:07:12.838Z,13.50
2019-03-09T18:09:41.916Z,11.63
2019-03-09T18:12:11.006Z,9.67
2019-03-09T18:14:40.154Z,18.50
2019-03-09T18:17:09.375Z,11.73
2019-03-09T18:19:38.438Z,23.33
2019-03-09T18:22:07.404Z,13.60
2019-03-09T18:24:36.500Z,13.77
2019-03-09T18:27:05.851Z,16.60
2019-03-09T18:29:34.787Z,12.33
2019-03-09T18:32:03.863Z,13.17
2019-03-09T18:34:32.798Z,14.93
2019-03-09T18:37:01.800Z,20.43
2019-03-09T18:39:30.947Z,17.93
2019-03-09T18:42:00.080Z,16.63
2019-03-09T18:44:29.107Z,17.37
2019-03-09T18:46:58.228Z,19.60
2019-03-09T18:49:27.323Z,18.77
2019-03-09T18:51:56.324Z,19.33
2019-03-09T18:54:25.458Z,22.50
2019-03-09T18:56:54.492Z,17.47
2019-03-09T18:59:23.517Z,21.77
2019-03-09T19:01:52.512Z,13.53
2019-03-09T19:04:21.661Z,23.77
2019-03-09T19:06:50.742Z,28.20
2019-03-09T19:09:19.856Z,24.70
2019-03-09T19:11:48.804Z,23.27
2019-03-09T19:14:17.904Z,18.97
2019-03-09T19:16:46.998Z,23.00
2019-03-09T19:19:16.143Z,17.37
2019-03-09T19:21:45.250Z,14.47
2019-03-09T19:24:14.413Z,19.03
2019-03-09T19:26:43.487Z,14.53
2019-03-09T19:29:12.487Z,10.23
2019-03-09T19:31:41.554Z,14.53
2019-03-09T19:34:10.673Z,16.37
2019-03-09T19:36:39.662Z,11.17
2019-03-09T19:39:08.734Z,15.30
2019-03-09T19:41:37.772Z,14.30
2019-03-09T19:44:06.803Z,14.60
2019-03-09T19:46:35.787Z,17.63
2019-03-09T19:49:04.879Z,21.93
2019-03-09T19:51:33.943Z,12.47
2019-03-09T19:54:02.938Z,19.50
2019-03-09T19:56:32.003Z,12.40
2019-03-09T19:59:01.135Z,15.50
2019-03-09T20:01:30.197Z,26.40
2019-03-09T20:03:59.291Z,22.63
2019-03-09T20:06:28.387Z,16.00
2019-03-09T20:08:57.484Z,15.90
2019-03-09T20:11:26.582Z,17.77
2019-03-09T20:13:55.660Z,15.13
2019-03-09T20:16:24.650Z,18.30
2019-03-09T20:18:53.734Z,14.97
2019-03-09T20:21:22.742Z,22.63
2019-03-09T20:23:51.727Z,13.27
2019-03-09T20:26:20.733Z,20.10
2019-03-09T20:28:49.827Z,16.03
2019-03-09T20:31:18.915Z,21.37
2019-03-09T20:33:47.956Z,20.27
2019-03-09T20:36:17.098Z,18.10
2019-03-09T20:38:46.183Z,18.43
2019-03-09T20:41:15.316Z,31.87
2019-03-09T20:43:44.360Z,19.57
2019-03-09T20:46:13.392Z,23.57
2019-03-09T20:48:42.308Z,24.23
2019-03-09T20:51:11.364Z,17.03
2019-03-09T20:53:40.376Z,13.17
2019-03-09T20:56:09.460Z,17.97
2019-03-09T20:58:38.546Z,19.63
2019-03-09T21:01:07.579Z,16.47
2019-03-09T21:03:36.657Z,17.13
2019-03-09T21:06:05.567Z,14.63
2019-03-09T21:08:34.555Z,14.63
2019-03-09T21:11:04.410Z,10.83
2019-03-09T21:13:33.731Z,17.50
2019-03-09T21:16:02.694Z,8.20
2019-03-09T21:18:31.798Z,9.63
2019-03-09T21:21:00.863Z,13.33
2019-03-09T21:23:29.805Z,8.27
2019-03-09T21:25:58.972Z,11.23
2019-03-09T21:28:28.063Z,13.67
2019-03-09T21:30:57.365Z,13.03
2019-03-09T21:33:26.446Z,10.53
2019-03-09T21:35:55.465Z,14.90
2019-03-09T21:38:24.483Z,18.37
2019-03-09T21:40:53.532Z,11.67
2019-03-09T21:43:22.475Z,8.27
2019-03-09T21:45:51.470Z,13.20
2019-03-09T21:48:20.534Z,15.90
2019-03-09T21:50:49.536Z,16.67
2019-03-09T21:53:18.473Z,13.83
2019-03-09T21:55:47.435Z,23.43
2019-03-09T21:58:16.493Z,20.60
2019-03-09T22:00:45.566Z,24.47
2019-03-09T22:03:14.648Z,21.63
2019-03-09T22:05:43.711Z,15.23
2019-03-09T22:08:12.740Z,18.10
2019-03-09T22:10:41.772Z,20.37
2019-03-09T22:13:10.889Z,14.47
2019-03-09T22:15:39.965Z,15.17
2019-03-09T22:18:09.029Z,16.10
2019-03-09T22:20:38.115Z,14.77
2019-03-09T22:23:07.114Z,16.07
2019-03-09T22:25:36.197Z,16.30
2019-03-09T22:28:05.207Z,18.03
2019-03-09T22:30:34.263Z,14.40
2019-03-09T22:33:04.809Z,19.83
2019-03-09T22:35:34.152Z,15.70
2019-03-09T22:38:03.251Z,13.17
2019-03-09T22:40:32.313Z,14.90
2019-03-09T22:43:01.455Z,14.30
2019-03-09T22:45:30.545Z,19.93
2019-03-09T22:47:59.520Z,18.43
2019-03-09T22:50:28.559Z,24.50
2019-03-09T22:52:57.530Z,14.87
2019-03-09T22:55:26.620Z,13.97
2019-03-09T22:57:55.651Z,17.03
2019-03-09T23:00:25.612Z,14.07
2019-03-09T23:02:54.673Z,16.50
2019-03-09T23:05:24.157Z,18.40
2019-03-09T23:07:53.264Z,17.50
2019-03-09T23:10:22.439Z,14.23
2019-03-09T23:12:51.415Z,15.50
2019-03-09T23:15:20.476Z,12.73
2019-03-09T23:17:49.592Z,13.43
2019-03-09T23:20:18.704Z,15.30
2019-03-09T23:22:47.803Z,13.73
2019-03-09T23:25:17.231Z,14.27
2019-03-09T23:27:46.301Z,11.27
2019-03-09T23:30:16.504Z,13.23
2019-03-09T23:32:45.583Z,15.20
2019-03-09T23:35:15.275Z,12.97
2019-03-09T23:37:44.412Z,15.80
2019-03-09T23:40:13.611Z,9.10
2019-03-09T23:42:42.655Z,11.53
2019-03-09T23:45:12.700Z,16.80
2019-03-09T23:47:42.111Z,14.10
2019-03-09T23:50:12.448Z,12.43
2019-03-09T23:52:41.523Z,18.70
2019-03-09T23:55:21.387Z,18.43
2019-03-09T23:57:42.047Z,21.83
